sensor_id;sensor_type;location;lat;lon;timestamp;pressure;altitude;pressure_sealevel;temperature;humidity
33265;BME280;31404;53.974;-1.086;2023-07-08T00:00:35;101374.86;;;19.36;68.46
33265;BME280;31404;53.974;-1.086;2023-07-08T00:05:36;101382.13;;;19.80;67.57
33265;BME280;31404;53.974;-1.086;2023-07-08T00:15:36;101375.51;;;19.33;67.49
33265;BME280;31404;53.974;-1.086;2023-07-08T00:20:38;101374.41;;;20.06;66.52
33265;BME280;31404;53.974;-1.086;2023-07-08T00:25:35;101369.42;;;19.69;66.83
33265;BME280;31404;53.974;-1.086;2023-07-08T00:30:36;101371.26;;;18.93;69.05
33265;BME280;31404;53.974;-1.086;2023-07-08T00:35:36;101363.69;;;19.54;67.19
33265;BME280;31404;53.974;-1.086;2023-07-08T00:40:35;101368.66;;;19.03;67.54
33265;BME280;31404;53.974;-1.086;2023-07-08T00:45:38;101369.50;;;19.76;67.04
33265;BME280;31404;53.974;-1.086;2023-07-08T00:50:33;101365.83;;;19.26;67.34
33265;BME280;31404;53.974;-1.086;2023-07-08T00:55:35;101362.99;;;19.09;67.86
33265;BME280;31404;53.974;-1.086;2023-07-08T01:00:35;101363.61;;;18.59;68.52
33265;BME280;31404;53.974;-1.086;2023-07-08T01:05:37;101368.45;;;18.46;69.49
33265;BME280;31404;53.974;-1.086;2023-07-08T01:20:35;101366.55;;;18.42;69.56
33265;BME280;31404;53.974;-1.086;2023-07-08T01:25:35;101367.97;;;18.07;70.69
33265;BME280;31404;53.974;-1.086;2023-07-08T01:30:41;101361.82;;;18.36;69.66
33265;BME280;31404;53.974;-1.086;2023-07-08T01:35:35;101354.35;;;17.79;71.88
33265;BME280;31404;53.974;-1.086;2023-07-08T01:40:37;101352.42;;;19.26;67.55
33265;BME280;31404;53.974;-1.086;2023-07-08T01:50:39;101338.71;;;17.46;74.81
33265;BME280;31404;53.974;-1.086;2023-07-08T01:55:34;101342.86;;;16.09;79.72
33265;BME280;31404;53.974;-1.086;2023-07-08T02:00:35;101329.86;;;16.96;77.59
33265;BME280;31404;53.974;-1.086;2023-07-08T02:05:35;101326.41;;;17.97;74.36
33265;BME280;31404;53.974;-1.086;2023-07-08T02:10:35;101318.86;;;18.00;74.72
33265;BME280;31404;53.974;-1.086;2023-07-08T02:15:35;101314.05;;;18.41;73.26
33265;BME280;31404;53.974;-1.086;2023-07-08T02:20:35;101314.49;;;18.08;74.69
33265;BME280;31404;53.974;-1.086;2023-07-08T02:25:34;101312.91;;;18.07;74.02
33265;BME280;31404;53.974;-1.086;2023-07-08T02:30:34;101306.23;;;17.59;76.30
33265;BME280;31404;53.974;-1.086;2023-07-08T02:35:35;101300.20;;;17.70;77.05
33265;BME280;31404;53.974;-1.086;2023-07-08T02:40:35;101299.04;;;17.23;78.71
33265;BME280;31404;53.974;-1.086;2023-07-08T02:45:34;101301.81;;;16.69;80.54
33265;BME280;31404;53.974;-1.086;2023-07-08T02:50:35;101302.07;;;18.19;75.42
33265;BME280;31404;53.974;-1.086;2023-07-08T02:55:35;101302.42;;;18.16;75.78
33265;BME280;31404;53.974;-1.086;2023-07-08T03:00:35;101304.84;;;17.70;77.78
33265;BME280;31404;53.974;-1.086;2023-07-08T03:05:35;101295.99;;;18.73;74.30
33265;BME280;31404;53.974;-1.086;2023-07-08T03:10:36;101299.92;;;17.98;76.23
33265;BME280;31404;53.974;-1.086;2023-07-08T03:15:36;101297.06;;;17.04;80.26
33265;BME280;31404;53.974;-1.086;2023-07-08T03:20:35;101296.91;;;16.82;83.22
33265;BME280;31404;53.974;-1.086;2023-07-08T03:25:36;101299.84;;;17.44;80.54
33265;BME280;31404;53.974;-1.086;2023-07-08T03:30:36;101298.78;;;17.99;79.32
33265;BME280;31404;53.974;-1.086;2023-07-08T03:35:35;101294.13;;;18.31;78.49
33265;BME280;31404;53.974;-1.086;2023-07-08T03:40:40;101295.93;;;17.70;80.18
33265;BME280;31404;53.974;-1.086;2023-07-08T03:45:35;101291.37;;;17.58;80.68
33265;BME280;31404;53.974;-1.086;2023-07-08T03:50:36;101287.41;;;17.30;82.23
33265;BME280;31404;53.974;-1.086;2023-07-08T03:55:35;101283.07;;;18.36;77.68
33265;BME280;31404;53.974;-1.086;2023-07-08T04:00:35;101283.20;;;18.01;80.15
33265;BME280;31404;53.974;-1.086;2023-07-08T04:05:36;101283.59;;;17.64;81.55
33265;BME280;31404;53.974;-1.086;2023-07-08T04:10:35;101280.89;;;17.25;82.19
33265;BME280;31404;53.974;-1.086;2023-07-08T04:15:35;101288.49;;;17.26;84.67
33265;BME280;31404;53.974;-1.086;2023-07-08T04:20:35;101285.17;;;18.61;79.27
33265;BME280;31404;53.974;-1.086;2023-07-08T04:25:35;101296.07;;;17.43;82.61
33265;BME280;31404;53.974;-1.086;2023-07-08T04:30:35;101298.51;;;17.62;83.30
33265;BME280;31404;53.974;-1.086;2023-07-08T04:35:35;101294.25;;;16.80;88.48
33265;BME280;31404;53.974;-1.086;2023-07-08T04:40:36;101287.82;;;16.75;87.17
33265;BME280;31404;53.974;-1.086;2023-07-08T04:45:35;101290.28;;;15.59;93.88
33265;BME280;31404;53.974;-1.086;2023-07-08T04:50:35;101291.07;;;15.97;93.15
33265;BME280;31404;53.974;-1.086;2023-07-08T04:55:36;101286.41;;;18.07;83.44
33265;BME280;31404;53.974;-1.086;2023-07-08T05:00:35;101287.07;;;17.76;83.89
33265;BME280;31404;53.974;-1.086;2023-07-08T05:05:36;101282.42;;;16.99;88.24
33265;BME280;31404;53.974;-1.086;2023-07-08T05:10:36;101285.37;;;17.66;86.41
33265;BME280;31404;53.974;-1.086;2023-07-08T05:15:35;101288.69;;;17.67;85.21
33265;BME280;31404;53.974;-1.086;2023-07-08T05:20:36;101288.12;;;17.25;86.20
33265;BME280;31404;53.974;-1.086;2023-07-08T05:25:38;101287.79;;;17.87;84.49
33265;BME280;31404;53.974;-1.086;2023-07-08T05:30:35;101280.50;;;18.58;81.05
33265;BME280;31404;53.974;-1.086;2023-07-08T05:35:36;101281.48;;;18.12;81.35
33265;BME280;31404;53.974;-1.086;2023-07-08T05:40:35;101283.11;;;19.43;77.70
33265;BME280;31404;53.974;-1.086;2023-07-08T05:45:35;101282.84;;;18.24;80.77
33265;BME280;31404;53.974;-1.086;2023-07-08T05:50:35;101278.51;;;19.41;77.68
33265;BME280;31404;53.974;-1.086;2023-07-08T05:55:36;101273.32;;;18.95;78.79
33265;BME280;31404;53.974;-1.086;2023-07-08T06:00:35;101272.16;;;19.80;75.25
33265;BME280;31404;53.974;-1.086;2023-07-08T06:05:37;101281.47;;;19.71;75.96
33265;BME280;31404;53.974;-1.086;2023-07-08T06:15:36;101273.88;;;19.86;75.89
33265;BME280;31404;53.974;-1.086;2023-07-08T06:20:35;101268.55;;;20.03;74.86
33265;BME280;31404;53.974;-1.086;2023-07-08T06:25:36;101267.07;;;19.29;76.98
33265;BME280;31404;53.974;-1.086;2023-07-08T06:30:36;101267.94;;;19.22;77.00
33265;BME280;31404;53.974;-1.086;2023-07-08T06:35:34;101266.78;;;19.65;75.62
33265;BME280;31404;53.974;-1.086;2023-07-08T06:40:35;101256.86;;;19.46;76.34
33265;BME280;31404;53.974;-1.086;2023-07-08T06:45:35;101263.74;;;20.27;73.76
33265;BME280;31404;53.974;-1.086;2023-07-08T06:50:35;101266.07;;;19.65;74.95
33265;BME280;31404;53.974;-1.086;2023-07-08T06:55:35;101259.82;;;20.54;71.72
33265;BME280;31404;53.974;-1.086;2023-07-08T07:00:35;101261.17;;;21.21;69.75
33265;BME280;31404;53.974;-1.086;2023-07-08T07:05:36;101262.07;;;20.83;70.24
33265;BME280;31404;53.974;-1.086;2023-07-08T07:10:35;101250.73;;;20.70;70.02
33265;BME280;31404;53.974;-1.086;2023-07-08T07:15:35;101251.97;;;21.11;68.24
33265;BME280;31404;53.974;-1.086;2023-07-08T07:20:37;101251.60;;;21.06;69.81
33265;BME280;31404;53.974;-1.086;2023-07-08T07:25:35;101254.30;;;21.57;68.30
33265;BME280;31404;53.974;-1.086;2023-07-08T07:30:37;101246.91;;;22.75;65.93
33265;BME280;31404;53.974;-1.086;2023-07-08T07:35:35;101255.78;;;21.90;67.05
33265;BME280;31404;53.974;-1.086;2023-07-08T07:40:35;101262.11;;;22.11;66.58
33265;BME280;31404;53.974;-1.086;2023-07-08T07:45:36;101276.78;;;22.05;66.87
33265;BME280;31404;53.974;-1.086;2023-07-08T07:50:35;101294.14;;;22.28;65.50
33265;BME280;31404;53.974;-1.086;2023-07-08T07:55:36;101298.96;;;22.90;64.34
33265;BME280;31404;53.974;-1.086;2023-07-08T08:00:36;101317.73;;;20.77;67.09
33265;BME280;31404;53.974;-1.086;2023-07-08T08:05:36;101317.52;;;19.50;71.00
33265;BME280;31404;53.974;-1.086;2023-07-08T08:10:35;101320.96;;;19.82;70.16
33265;BME280;31404;53.974;-1.086;2023-07-08T08:15:35;101306.78;;;20.83;67.38
33265;BME280;31404;53.974;-1.086;2023-07-08T08:20:35;101295.78;;;21.96;68.89
33265;BME280;31404;53.974;-1.086;2023-07-08T08:25:35;101303.22;;;21.94;65.74
33265;BME280;31404;53.974;-1.086;2023-07-08T08:30:35;101304.69;;;23.04;62.12
33265;BME280;31404;53.974;-1.086;2023-07-08T08:35:35;101323.92;;;20.40;68.66
33265;BME280;31404;53.974;-1.086;2023-07-08T08:40:35;101315.11;;;21.94;65.51
33265;BME280;31404;53.974;-1.086;2023-07-08T08:55:35;101290.05;;;21.59;65.21
33265;BME280;31404;53.974;-1.086;2023-07-08T09:05:35;101275.67;;;21.53;67.17
33265;BME280;31404;53.974;-1.086;2023-07-08T09:15:37;101273.55;;;22.35;65.06
33265;BME280;31404;53.974;-1.086;2023-07-08T09:20:34;101272.45;;;22.13;65.84
33265;BME280;31404;53.974;-1.086;2023-07-08T09:25:39;101278.20;;;22.85;65.13
33265;BME280;31404;53.974;-1.086;2023-07-08T09:30:35;101288.99;;;22.22;67.64
33265;BME280;31404;53.974;-1.086;2023-07-08T09:40:35;101303.16;;;23.75;63.21
33265;BME280;31404;53.974;-1.086;2023-07-08T09:50:36;101322.45;;;23.67;63.34
33265;BME280;31404;53.974;-1.086;2023-07-08T09:55:35;101323.68;;;23.73;64.13
33265;BME280;31404;53.974;-1.086;2023-07-08T10:00:40;101328.88;;;23.74;63.50
33265;BME280;31404;53.974;-1.086;2023-07-08T10:05:38;101325.19;;;23.70;66.39
33265;BME280;31404;53.974;-1.086;2023-07-08T10:10:38;101335.18;;;23.51;65.96
33265;BME280;31404;53.974;-1.086;2023-07-08T10:15:38;101367.74;;;22.77;68.18
33265;BME280;31404;53.974;-1.086;2023-07-08T11:20:39;101460.90;;;23.41;65.74
33265;BME280;31404;53.974;-1.086;2023-07-08T11:30:36;101475.46;;;22.44;68.66
33265;BME280;31404;53.974;-1.086;2023-07-08T11:45:38;101489.01;;;23.11;66.96
33265;BME280;31404;53.974;-1.086;2023-07-08T11:50:40;101491.14;;;22.64;67.78
33265;BME280;31404;53.974;-1.086;2023-07-08T11:55:38;101498.59;;;23.99;64.68
33265;BME280;31404;53.974;-1.086;2023-07-08T12:00:37;101509.32;;;22.46;71.15
33265;BME280;31404;53.974;-1.086;2023-07-08T12:15:36;101517.05;;;20.17;86.79
33265;BME280;31404;53.974;-1.086;2023-07-08T12:25:36;101522.55;;;18.71;92.85
33265;BME280;31404;53.974;-1.086;2023-07-08T12:30:36;101510.18;;;19.47;90.41
33265;BME280;31404;53.974;-1.086;2023-07-08T12:35:36;101508.31;;;22.19;80.82
33265;BME280;31404;53.974;-1.086;2023-07-08T12:40:36;101499.89;;;21.03;84.88
33265;BME280;31404;53.974;-1.086;2023-07-08T12:50:35;101540.93;;;21.05;89.56
33265;BME280;31404;53.974;-1.086;2023-07-08T12:55:37;101526.69;;;21.24;87.15
33265;BME280;31404;53.974;-1.086;2023-07-08T13:00:39;101549.25;;;21.39;89.55
33265;BME280;31404;53.974;-1.086;2023-07-08T13:05:36;101557.86;;;20.66;94.14
33265;BME280;31404;53.974;-1.086;2023-07-08T13:10:36;101569.24;;;19.94;97.06
33265;BME280;31404;53.974;-1.086;2023-07-08T13:15:38;101570.09;;;21.37;93.20
33265;BME280;31404;53.974;-1.086;2023-07-08T13:20:35;101566.14;;;19.43;100.00
33265;BME280;31404;53.974;-1.086;2023-07-08T13:25:38;101534.51;;;22.31;88.11
33265;BME280;31404;53.974;-1.086;2023-07-08T13:30:36;101522.26;;;21.65;91.68
33265;BME280;31404;53.974;-1.086;2023-07-08T13:35:37;101539.34;;;21.95;90.64
33265;BME280;31404;53.974;-1.086;2023-07-08T13:40:36;101518.66;;;19.06;100.00
33265;BME280;31404;53.974;-1.086;2023-07-08T13:45:36;101528.75;;;18.50;100.00
33265;BME280;31404;53.974;-1.086;2023-07-08T13:55:34;101543.65;;;19.97;100.00
33265;BME280;31404;53.974;-1.086;2023-07-08T14:00:36;101548.32;;;20.68;100.00
33265;BME280;31404;53.974;-1.086;2023-07-08T14:05:37;101550.57;;;20.99;100.00
33265;BME280;31404;53.974;-1.086;2023-07-08T14:10:35;101542.55;;;22.09;98.45
33265;BME280;31404;53.974;-1.086;2023-07-08T14:15:36;101569.12;;;21.77;96.90
33265;BME280;31404;53.974;-1.086;2023-07-08T14:20:35;101574.33;;;22.28;92.60
33265;BME280;31404;53.974;-1.086;2023-07-08T14:25:36;101554.44;;;22.17;93.92
33265;BME280;31404;53.974;-1.086;2023-07-08T14:35:40;101538.16;;;22.79;89.55
33265;BME280;31404;53.974;-1.086;2023-07-08T14:40:37;101514.05;;;23.02;89.82
33265;BME280;31404;53.974;-1.086;2023-07-08T14:45:39;101498.89;;;20.97;100.00
33265;BME280;31404;53.974;-1.086;2023-07-08T14:50:35;101492.23;;;20.00;100.00
33265;BME280;31404;53.974;-1.086;2023-07-08T14:55:36;101494.56;;;18.87;100.00
33265;BME280;31404;53.974;-1.086;2023-07-08T15:00:36;101492.72;;;19.93;100.00
33265;BME280;31404;53.974;-1.086;2023-07-08T15:05:36;101496.52;;;20.90;100.00
33265;BME280;31404;53.974;-1.086;2023-07-08T15:10:36;101494.65;;;19.00;100.00
33265;BME280;31404;53.974;-1.086;2023-07-08T15:15:36;101496.48;;;20.74;100.00
33265;BME280;31404;53.974;-1.086;2023-07-08T15:20:35;101502.14;;;20.34;100.00
33265;BME280;31404;53.974;-1.086;2023-07-08T15:25:35;101501.29;;;19.41;100.00
33265;BME280;31404;53.974;-1.086;2023-07-08T15:30:37;101506.12;;;20.61;100.00
33265;BME280;31404;53.974;-1.086;2023-07-08T15:35:35;101499.66;;;20.16;100.00
33265;BME280;31404;53.974;-1.086;2023-07-08T15:40:41;101508.71;;;21.46;100.00
33265;BME280;31404;53.974;-1.086;2023-07-08T15:45:37;101501.86;;;23.00;94.15
33265;BME280;31404;53.974;-1.086;2023-07-08T15:50:36;101506.29;;;22.57;93.05
33265;BME280;31404;53.974;-1.086;2023-07-08T15:55:39;101505.73;;;22.47;92.62
33265;BME280;31404;53.974;-1.086;2023-07-08T16:00:39;101517.87;;;21.98;92.47
33265;BME280;31404;53.974;-1.086;2023-07-08T16:05:40;101538.84;;;20.53;99.87
33265;BME280;31404;53.974;-1.086;2023-07-08T16:10:35;101546.73;;;20.04;100.00
33265;BME280;31404;53.974;-1.086;2023-07-08T16:15:36;101546.24;;;19.80;100.00
33265;BME280;31404;53.974;-1.086;2023-07-08T16:20:36;101541.38;;;20.51;100.00
33265;BME280;31404;53.974;-1.086;2023-07-08T16:25:37;101529.29;;;18.64;100.00
33265;BME280;31404;53.974;-1.086;2023-07-08T16:30:36;101518.28;;;21.62;100.00
33265;BME280;31404;53.974;-1.086;2023-07-08T16:35:36;101520.67;;;20.30;100.00
33265;BME280;31404;53.974;-1.086;2023-07-08T16:40:36;101525.32;;;22.61;98.08
33265;BME280;31404;53.974;-1.086;2023-07-08T16:45:36;101525.20;;;22.70;97.02
33265;BME280;31404;53.974;-1.086;2023-07-08T16:50:36;101506.64;;;23.48;93.56
33265;BME280;31404;53.974;-1.086;2023-07-08T16:55:36;101498.01;;;22.05;98.50
33265;BME280;31404;53.974;-1.086;2023-07-08T17:00:37;101509.16;;;22.02;96.97
33265;BME280;31404;53.974;-1.086;2023-07-08T17:05:35;101510.37;;;23.00;90.98
33265;BME280;31404;53.974;-1.086;2023-07-08T17:10:35;101510.43;;;23.49;89.92
33265;BME280;31404;53.974;-1.086;2023-07-08T17:15:37;101524.07;;;22.14;94.38
33265;BME280;31404;53.974;-1.086;2023-07-08T17:20:39;101532.61;;;21.40;97.17
33265;BME280;31404;53.974;-1.086;2023-07-08T17:25:37;101535.47;;;23.10;89.58
33265;BME280;31404;53.974;-1.086;2023-07-08T17:30:38;101533.50;;;21.89;93.18
33265;BME280;31404;53.974;-1.086;2023-07-08T17:35:36;101532.61;;;23.29;86.08
33265;BME280;31404;53.974;-1.086;2023-07-08T17:40:34;101524.83;;;22.61;88.53
33265;BME280;31404;53.974;-1.086;2023-07-08T17:50:36;101521.76;;;23.63;85.90
33265;BME280;31404;53.974;-1.086;2023-07-08T17:55:36;101520.92;;;23.25;85.26
33265;BME280;31404;53.974;-1.086;2023-07-08T18:00:36;101505.37;;;21.57;97.01
33265;BME280;31404;53.974;-1.086;2023-07-08T18:05:36;101501.80;;;20.32;100.00
33265;BME280;31404;53.974;-1.086;2023-07-08T18:10:34;101502.37;;;21.40;96.10
33265;BME280;31404;53.974;-1.086;2023-07-08T18:20:37;101506.83;;;22.61;90.81
33265;BME280;31404;53.974;-1.086;2023-07-08T18:25:34;101511.07;;;23.07;86.85
33265;BME280;31404;53.974;-1.086;2023-07-08T18:30:36;101511.48;;;22.75;87.84
33265;BME280;31404;53.974;-1.086;2023-07-08T18:35:36;101506.52;;;22.35;88.53
33265;BME280;31404;53.974;-1.086;2023-07-08T18:40:38;101503.20;;;22.16;89.23
33265;BME280;31404;53.974;-1.086;2023-07-08T18:45:35;101499.90;;;22.65;86.43
33265;BME280;31404;53.974;-1.086;2023-07-08T18:50:36;101510.78;;;21.74;91.21
33265;BME280;31404;53.974;-1.086;2023-07-08T18:55:35;101515.33;;;22.15;90.66
33265;BME280;31404;53.974;-1.086;2023-07-08T19:00:34;101510.27;;;21.99;89.93
33265;BME280;31404;53.974;-1.086;2023-07-08T19:05:35;101516.38;;;21.71;91.50
33265;BME280;31404;53.974;-1.086;2023-07-08T19:10:35;101514.43;;;22.54;86.97
33265;BME280;31404;53.974;-1.086;2023-07-08T19:15:35;101532.73;;;22.48;87.19
33265;BME280;31404;53.974;-1.086;2023-07-08T19:20:37;101534.39;;;23.54;82.50
33265;BME280;31404;53.974;-1.086;2023-07-08T19:25:36;101534.78;;;23.20;82.62
33265;BME280;31404;53.974;-1.086;2023-07-08T19:30:39;101535.07;;;22.59;85.36
33265;BME280;31404;53.974;-1.086;2023-07-08T19:40:35;101532.65;;;20.02;99.17
33265;BME280;31404;53.974;-1.086;2023-07-08T19:45:34;101539.50;;;19.70;100.00
33265;BME280;31404;53.974;-1.086;2023-07-08T19:50:34;101536.75;;;19.48;100.00
33265;BME280;31404;53.974;-1.086;2023-07-08T19:55:37;101528.87;;;20.16;100.00
33265;BME280;31404;53.974;-1.086;2023-07-08T20:00:37;101526.48;;;19.71;100.00
33265;BME280;31404;53.974;-1.086;2023-07-08T20:05:36;101532.65;;;20.01;99.90
33265;BME280;31404;53.974;-1.086;2023-07-08T20:10:35;101539.39;;;20.70;96.64
33265;BME280;31404;53.974;-1.086;2023-07-08T20:15:36;101547.59;;;20.05;95.63
33265;BME280;31404;53.974;-1.086;2023-07-08T20:20:39;101545.60;;;20.49;93.09
33265;BME280;31404;53.974;-1.086;2023-07-08T20:25:34;101553.12;;;21.01;89.27
33265;BME280;31404;53.974;-1.086;2023-07-08T20:30:35;101553.89;;;18.67;100.00
33265;BME280;31404;53.974;-1.086;2023-07-08T20:35:36;101550.30;;;19.80;94.07
33265;BME280;31404;53.974;-1.086;2023-07-08T20:40:35;101538.52;;;19.58;96.32
33265;BME280;31404;53.974;-1.086;2023-07-08T20:45:35;101525.94;;;18.19;100.00
33265;BME280;31404;53.974;-1.086;2023-07-08T20:50:35;101539.45;;;19.15;99.14
33265;BME280;31404;53.974;-1.086;2023-07-08T20:55:35;101555.84;;;19.50;96.27
33265;BME280;31404;53.974;-1.086;2023-07-08T21:00:36;101554.60;;;19.35;96.61
33265;BME280;31404;53.974;-1.086;2023-07-08T21:05:36;101554.66;;;20.06;95.30
33265;BME280;31404;53.974;-1.086;2023-07-08T21:10:36;101559.01;;;20.86;90.44
33265;BME280;31404;53.974;-1.086;2023-07-08T21:15:31;101563.31;;;20.91;89.32
33265;BME280;31404;53.974;-1.086;2023-07-08T21:25:36;101554.08;;;20.99;89.72
33265;BME280;31404;53.974;-1.086;2023-07-08T21:30:36;101557.90;;;21.17;87.23
33265;BME280;31404;53.974;-1.086;2023-07-08T21:40:38;101558.11;;;21.45;86.25
33265;BME280;31404;53.974;-1.086;2023-07-08T21:45:37;101561.15;;;20.14;93.30
33265;BME280;31404;53.974;-1.086;2023-07-08T21:50:38;101570.69;;;21.17;89.45
33265;BME280;31404;53.974;-1.086;2023-07-08T21:55:36;101581.68;;;21.19;89.60
33265;BME280;31404;53.974;-1.086;2023-07-08T22:00:36;101588.97;;;21.22;88.53
33265;BME280;31404;53.974;-1.086;2023-07-08T22:05:34;101596.16;;;21.57;90.17
33265;BME280;31404;53.974;-1.086;2023-07-08T22:10:35;101604.73;;;19.95;98.32
33265;BME280;31404;53.974;-1.086;2023-07-08T22:15:35;101658.38;;;17.87;100.00
33265;BME280;31404;53.974;-1.086;2023-07-08T22:20:35;101629.28;;;20.53;100.00
33265;BME280;31404;53.974;-1.086;2023-07-08T22:25:36;101637.87;;;19.84;100.00
33265;BME280;31404;53.974;-1.086;2023-07-08T22:30:35;101649.68;;;18.77;100.00
33265;BME280;31404;53.974;-1.086;2023-07-08T22:35:36;101654.13;;;18.93;100.00
33265;BME280;31404;53.974;-1.086;2023-07-08T22:40:39;101688.95;;;17.61;100.00
33265;BME280;31404;53.974;-1.086;2023-07-08T22:45:36;101675.90;;;16.29;100.00
33265;BME280;31404;53.974;-1.086;2023-07-08T22:50:37;101647.70;;;15.95;100.00
33265;BME280;31404;53.974;-1.086;2023-07-08T22:55:35;101642.39;;;16.99;100.00
33265;BME280;31404;53.974;-1.086;2023-07-08T23:00:37;101667.35;;;14.95;100.00
33265;BME280;31404;53.974;-1.086;2023-07-08T23:10:36;101668.76;;;15.51;100.00
33265;BME280;31404;53.974;-1.086;2023-07-08T23:15:35;101660.41;;;15.96;100.00
33265;BME280;31404;53.974;-1.086;2023-07-08T23:20:33;101636.88;;;16.73;100.00
33265;BME280;31404;53.974;-1.086;2023-07-08T23:25:35;101645.36;;;17.64;100.00
33265;BME280;31404;53.974;-1.086;2023-07-08T23:35:36;101590.29;;;18.35;100.00
33265;BME280;31404;53.974;-1.086;2023-07-08T23:40:34;101567.12;;;18.35;100.00
33265;BME280;31404;53.974;-1.086;2023-07-08T23:45:35;101577.18;;;19.86;100.00
33265;BME280;31404;53.974;-1.086;2023-07-08T23:50:35;101578.59;;;18.61;100.00
33265;BME280;31404;53.974;-1.086;2023-07-08T23:55:35;101582.63;;;19.25;100.00
